Terminal Aerodrome Forecast
Issued by NWS Melbourne, FL

Home | Current Version | Previous Version | Text Only | Print | Product List | Glossary On
Versions: 1 2 3 4 5 6 7 8 9 10 11 12 13 14 15 16 17 18 19 20
000
FTUS42 KMLB 211721
TAFDAB
TAF
KDAB 211721Z 2118/2218 12006KT 5SM RA BR SCT020 BKN070 OVC090
      TEMPO 2118/2120 2SM +SHRA BKN020
     FM212200 12011KT P6SM -RA SCT025 BKN070
     FM220000 11003KT P6SM SCT020 BKN040 OVC060
     FM221400 13007KT P6SM VCSH SCT020 BKN040 OVC060=

USA.gov is the U.S. government's official web portal to all federal, state and local government web resources and services.